Time;durP1;ratioP1;P1;durP2;ratioP2;P2;SDS_P1;SDS_P2;PMS_P1;PMS_P2;Temp;Humidity;BMP_temperature;BMP_pressure;BME280_temperature;BME280_humidity;BME280_pressure;Samples;Min_cycle;Max_cycle;Signal;HPM_P1;HPM_P2
2022/01/30 00:00:46;;;;;;;2.30;0.85;;;;;;;-146.19;100.00;65364.44;10532626;28;20048;-49
2022/01/30 00:06:06;;;;;;;1.33;0.80;;;;;;;-146.19;100.00;65364.44;10523950;28;20061;-49
2022/01/30 00:11:30;;;;;;;1.17;0.65;;;;;;;-146.19;100.00;65364.44;10535709;28;20043;-53
2022/01/30 00:16:57;;;;;;;1.70;1.00;;;;;;;-146.19;100.00;65364.44;10533487;28;20056;-50
2022/01/30 00:22:36;;;;;;;1.98;0.88;;;;;;;-146.19;100.00;65364.44;10534116;28;20418;-52
2022/01/30 00:28:04;;;;;;;1.85;0.88;;;;;;;-146.19;100.00;65364.44;10523502;28;20093;-49
2022/01/30 00:33:24;;;;;;;2.55;0.80;;;;;;;-146.19;100.00;65364.44;10534425;28;20035;-50
2022/01/30 00:38:44;;;;;;;2.15;0.95;;;;;;;-146.19;100.00;65364.44;10540220;28;20044;-49
2022/01/30 00:44:04;;;;;;;1.63;0.88;;;;;;;-146.19;100.00;65364.44;10523368;28;20056;-49
2022/01/30 00:49:25;;;;;;;1.17;0.82;;;;;;;-146.19;100.00;65364.44;10531495;28;20217;-50
2022/01/30 00:54:45;;;;;;;1.65;0.80;;;;;;;-146.19;100.00;65364.44;10536890;28;20052;-50
2022/01/30 01:00:05;;;;;;;2.60;0.70;;;;;;;-146.19;100.00;65364.44;10523989;28;20063;-50
2022/01/30 01:05:25;;;;;;;1.23;0.77;;;;;;;-146.19;100.00;65364.44;10538792;28;20048;-50
2022/01/30 01:11:00;;;;;;;2.28;0.98;;;;;;;-146.19;100.00;65364.44;10522918;28;20411;-49
2022/01/30 01:27:37;;;;;;;1.40;0.90;;;;;;;-146.19;100.00;65364.44;10536659;28;20048;-50
2022/01/30 01:33:01;;;;;;;1.15;0.70;;;;;;;-146.19;100.00;65364.44;10529894;28;20052;-49
2022/01/30 01:38:21;;;;;;;0.80;0.80;;;;;;;-146.19;100.00;65364.44;10528858;28;20036;-53
2022/01/30 01:43:40;;;;;;;1.70;0.60;;;;;;;-146.19;100.00;65364.44;10531823;28;20487;-50
2022/01/30 01:49:00;;;;;;;2.17;0.80;;;;;;;-146.19;100.00;65364.44;10540206;28;20324;-50
2022/01/30 01:54:19;;;;;;;1.17;0.70;;;;;;;-146.19;100.00;65364.44;10539187;28;20043;-49
2022/01/30 01:59:39;;;;;;;1.08;0.73;;;;;;;-146.19;100.00;65364.44;10521367;28;20059;-49
2022/01/30 02:05:31;;;;;;;1.33;0.80;;;;;;;-146.19;100.00;65364.44;10522135;28;20052;-49
2022/01/30 02:11:03;;;;;;;1.40;0.75;;;;;;;-146.19;100.00;65364.44;10537221;28;20564;-50
2022/01/30 02:27:35;;;;;;;1.15;0.70;;;;;;;-146.19;100.00;65364.44;10519253;28;20509;-50
2022/01/30 02:32:56;;;;;;;0.90;0.60;;;;;;;-146.19;100.00;65364.44;10522974;28;20508;-50
2022/01/30 02:38:17;;;;;;;1.42;0.90;;;;;;;-146.19;100.00;65364.44;10519274;28;20108;-50
2022/01/30 02:43:47;;;;;;;1.42;0.70;;;;;;;-146.19;100.00;65364.44;10537180;28;20036;-49
2022/01/30 02:54:52;;;;;;;0.68;0.55;;;;;;;-146.19;100.00;65364.44;10494035;28;20407;-51
2022/01/30 03:00:12;;;;;;;1.02;0.60;;;;;;;-146.19;100.00;65364.44;10533554;28;20767;-51
2022/01/30 03:05:31;;;;;;;1.35;0.80;;;;;;;-146.19;100.00;65364.44;10535105;28;20048;-49
2022/01/30 03:10:51;;;;;;;1.42;0.60;;;;;;;-146.19;100.00;65364.44;10539278;28;20039;-50
2022/01/30 03:16:11;;;;;;;0.80;0.60;;;;;;;-146.19;100.00;65364.44;10532629;28;20396;-49
2022/01/30 03:21:30;;;;;;;0.65;0.60;;;;;;;-146.19;100.00;65364.44;10537748;28;20044;-49
2022/01/30 03:26:50;;;;;;;0.60;0.60;;;;;;;-146.19;100.00;65364.44;10515849;28;20055;-50
2022/01/30 03:32:30;;;;;;;1.15;0.60;;;;;;;-146.19;100.00;65364.44;10506273;28;20063;-49
2022/01/30 03:37:50;;;;;;;0.80;0.60;;;;;;;-146.19;100.00;65364.44;10518080;28;20541;-50
2022/01/30 03:43:10;;;;;;;0.70;0.68;;;;;;;-146.19;100.00;65364.44;10533997;28;20059;-50
2022/01/30 03:48:30;;;;;;;0.55;0.40;;;;;;;-146.19;100.00;65364.44;10516974;28;20064;-49
2022/01/30 03:54:07;;;;;;;2.05;0.55;;;;;;;-146.19;100.00;65364.44;10512169;28;20044;-50
2022/01/30 03:59:27;;;;;;;0.95;0.63;;;;;;;-146.19;100.00;65364.44;10501487;28;20140;-49
2022/01/30 04:04:46;;;;;;;0.80;0.50;;;;;;;-146.19;100.00;65364.44;10517625;28;20058;-50
2022/01/30 04:10:06;;;;;;;0.60;0.45;;;;;;;-146.19;100.00;65364.44;10520316;28;20044;-49
2022/01/30 04:15:34;;;;;;;1.08;0.70;;;;;;;-146.19;100.00;65364.44;10510598;28;20048;-49
2022/01/30 04:21:30;;;;;;;0.52;0.50;;;;;;;-146.19;100.00;65364.44;10391687;28;20047;-50
2022/01/30 04:27:08;;;;;;;;;;;;;;;-146.19;100.00;65364.44;10531541;28;20495;-50
2022/01/30 04:32:48;;;;;;;0.82;0.50;;;;;;;-146.19;100.00;65364.44;10513853;28;19965;-50
2022/01/30 04:38:28;;;;;;;0.60;0.60;;;;;;;-146.19;100.00;65364.44;10519275;28;20112;-50
2022/01/30 05:02:06;;;;;;;1.23;0.60;;;;;;;-146.19;100.00;65364.44;10506099;28;20048;-50
2022/01/30 05:07:28;;;;;;;0.40;0.40;;;;;;;-146.19;100.00;65364.44;10511411;28;20048;-50
2022/01/30 05:13:16;;;;;;;0.65;0.52;;;;;;;-146.19;100.00;65364.44;10497402;28;20669;-49
2022/01/30 05:18:43;;;;;;;0.60;0.50;;;;;;;-146.19;100.00;65364.44;10515525;28;20048;-49
2022/01/30 05:24:22;;;;;;;0.95;0.60;;;;;;;-146.19;100.00;65364.44;10540313;28;20047;-50
2022/01/30 05:29:46;;;;;;;0.40;0.40;;;;;;;-146.19;100.00;65364.44;10517604;28;20044;-50
2022/01/30 05:35:15;;;;;;;0.30;0.30;;;;;;;-146.19;100.00;65364.44;10521239;28;20052;-49
2022/01/30 05:40:51;;;;;;;0.45;0.45;;;;;;;-146.19;100.00;65364.44;10534173;28;20052;-50
2022/01/30 05:46:54;;;;;;;0.50;0.50;;;;;;;-146.19;100.00;65364.44;10534740;28;20040;-49
2022/01/30 05:52:38;;;;;;;0.75;0.57;;;;;;;-146.19;100.00;65364.44;10519141;28;20059;-51
2022/01/30 05:58:12;;;;;;;0.60;0.40;;;;;;;-146.19;100.00;65364.44;10518794;28;20044;-50
2022/01/30 06:04:00;;;;;;;0.55;0.40;;;;;;;-146.19;100.00;65364.44;10527759;28;20056;-53
2022/01/30 06:09:20;;;;;;;0.85;0.50;;;;;;;-146.19;100.00;65364.44;10515119;28;20047;-51
2022/01/30 06:14:47;;;;;;;0.75;0.50;;;;;;;-146.19;100.00;65364.44;10516322;28;20059;-49
2022/01/30 06:20:14;;;;;;;0.40;0.40;;;;;;;-146.19;100.00;65364.44;10520184;28;20506;-50
2022/01/30 06:25:53;;;;;;;0.50;0.50;;;;;;;-146.19;100.00;65364.44;10533216;28;20047;-50
2022/01/30 06:31:31;;;;;;;0.75;0.57;;;;;;;-146.19;100.00;65364.44;10519178;28;20052;-50
2022/01/30 06:37:09;;;;;;;0.98;0.50;;;;;;;-146.19;100.00;65364.44;10506845;28;20048;-50
2022/01/30 06:43:01;;;;;;;1.67;0.52;;;;;;;-146.19;100.00;65364.44;10482333;28;20067;-52
2022/01/30 06:48:39;;;;;;;0.63;0.45;;;;;;;-146.19;100.00;65364.44;10508004;28;20048;-49
2022/01/30 06:54:37;;;;;;;0.45;0.40;;;;;;;-146.19;100.00;65364.44;10335780;28;20145;-53
2022/01/30 07:00:16;;;;;;;0.40;0.40;;;;;;;-146.19;100.00;65364.44;10507464;28;20052;-52
2022/01/30 07:05:54;;;;;;;0.50;0.40;;;;;;;-146.19;100.00;65364.44;10518542;28;20528;-50
2022/01/30 07:11:24;;;;;;;1.40;0.50;;;;;;;-146.19;100.00;65364.44;10501971;28;20056;-50
2022/01/30 07:16:44;;;;;;;1.75;0.40;;;;;;;-146.19;100.00;65364.44;10509152;28;20052;-51
2022/01/30 07:22:04;;;;;;;1.20;0.60;;;;;;;-146.19;100.00;65364.44;10523377;28;20043;-50
2022/01/30 07:27:24;;;;;;;0.80;0.60;;;;;;;-146.19;100.00;65364.44;10522633;28;20483;-49
2022/01/30 07:32:43;;;;;;;0.43;0.40;;;;;;;-146.19;100.00;65364.44;10499404;28;20483;-50
2022/01/30 07:38:03;;;;;;;0.38;0.38;;;;;;;-146.19;100.00;65364.44;10507505;28;20048;-50
2022/01/30 07:43:23;;;;;;;0.57;0.40;;;;;;;-146.19;100.00;65364.44;10513499;28;20422;-51
2022/01/30 07:48:52;;;;;;;1.10;0.70;;;;;;;-146.19;100.00;65364.44;10502490;28;20464;-52
2022/01/30 07:54:12;;;;;;;0.40;0.40;;;;;;;-146.19;100.00;65364.44;10522036;28;20065;-53
2022/01/30 07:59:32;;;;;;;0.90;0.60;;;;;;;-146.19;100.00;65364.44;10512419;28;20048;-50
2022/01/30 08:04:55;;;;;;;0.80;0.55;;;;;;;-146.19;100.00;65364.44;10515994;28;20067;-50
2022/01/30 08:10:14;;;;;;;1.00;0.52;;;;;;;-146.19;100.00;65364.44;10520628;28;20048;-51
2022/01/30 08:15:34;;;;;;;0.90;0.57;;;;;;;-146.19;100.00;65364.44;10513265;28;20800;-52
2022/01/30 08:20:54;;;;;;;1.13;0.52;;;;;;;-146.19;100.00;65364.44;10519916;28;20044;-50
2022/01/30 08:26:14;;;;;;;1.67;0.70;;;;;;;-146.19;100.00;65364.44;10508590;28;20511;-51
2022/01/30 08:31:33;;;;;;;1.27;0.60;;;;;;;-146.19;100.00;65364.44;10495515;28;21411;-50
2022/01/30 08:36:53;;;;;;;0.80;0.60;;;;;;;-146.19;100.00;65364.44;10504061;28;20058;-50
2022/01/30 08:42:12;;;;;;;1.17;0.80;;;;;;;-146.19;100.00;65364.44;10513353;28;20044;-50
2022/01/30 08:47:32;;;;;;;3.47;1.02;;;;;;;-146.19;100.00;65364.44;10512258;28;20461;-53
2022/01/30 08:52:52;;;;;;;3.85;1.10;;;;;;;18.40;28.71;96656.88;10509155;28;20052;-50
2022/01/30 08:58:13;;;;;;;3.47;1.10;;;;;;;-146.19;100.00;65364.44;10517375;28;20125;-52
2022/01/30 09:03:32;;;;;;;3.25;1.10;;;;;;;-146.19;100.00;65364.44;10518847;28;20043;-50
2022/01/30 09:08:52;;;;;;;2.63;1.00;;;;;;;-146.19;100.00;65364.44;10521175;28;20048;-50
2022/01/30 09:14:11;;;;;;;5.65;1.10;;;;;;;-146.19;100.00;65364.44;10514991;28;20047;-50
2022/01/30 09:19:31;;;;;;;3.53;1.10;;;;;;;-146.19;100.00;65364.44;10522351;28;20507;-51
2022/01/30 09:24:51;;;;;;;3.03;1.00;;;;;;;18.40;28.71;96656.88;10527386;28;20040;-50
2022/01/30 09:30:11;;;;;;;2.47;1.10;;;;;;;19.02;30.79;96715.03;10516795;28;20044;-52
2022/01/30 09:35:31;;;;;;;2.13;1.00;;;;;;;19.19;30.67;96718.78;10515880;28;20043;-50
2022/01/30 09:40:53;;;;;;;2.05;1.00;;;;;;;19.28;31.99;96717.63;10501396;28;20049;-50
2022/01/30 09:46:15;;;;;;;3.17;0.98;;;;;;;19.40;32.38;96730.44;10521232;28;20036;-50
2022/01/30 09:51:36;;;;;;;1.88;0.85;;;;;;;19.49;32.79;96715.00;10513591;28;20043;-49
2022/01/30 09:56:56;;;;;;;2.38;1.20;;;;;;;19.55;33.45;96711.00;10513169;28;20498;-49
2022/01/30 10:02:15;;;;;;;3.92;1.10;;;;;;;19.62;34.02;96683.47;10519267;28;20885;-49
2022/01/30 10:07:48;;;;;;;2.15;0.93;;;;;;;19.68;34.30;96676.75;10513711;28;20048;-51
2022/01/30 10:13:08;;;;;;;2.17;1.13;;;;;;;19.76;34.59;96642.72;10521103;28;20419;-49
2022/01/30 10:18:32;;;;;;;1.92;1.00;;;;;;;19.83;35.02;96661.88;10512757;28;20071;-50
2022/01/30 10:23:52;;;;;;;1.88;0.80;;;;;;;19.89;35.18;96676.00;10509994;28;20055;-50
2022/01/30 10:29:31;;;;;;;2.78;0.98;;;;;;;19.94;35.62;96692.81;10519511;28;20040;-50
2022/01/30 10:35:06;;;;;;;1.92;1.00;;;;;;;20.00;35.78;96735.91;10514903;28;20505;-49
2022/01/30 10:40:35;;;;;;;2.03;1.10;;;;;;;20.02;36.12;96731.72;10513525;28;20056;-49
2022/01/30 10:45:55;;;;;;;2.17;1.00;;;;;;;20.09;36.39;96706.84;10514293;28;20056;-51
2022/01/30 10:51:14;;;;;;;2.20;0.85;;;;;;;20.13;36.79;96726.72;10513668;28;20041;-53
2022/01/30 10:56:34;;;;;;;1.20;0.68;;;;;;;20.18;36.99;96748.16;10522985;28;20056;-50
2022/01/30 11:01:53;;;;;;;1.77;0.70;;;;;;;20.23;37.33;96766.91;10511489;28;20703;-49
2022/01/30 11:07:19;;;;;;;1.52;0.70;;;;;;;20.27;37.41;96770.53;10515091;28;20052;-51
2022/01/30 11:12:46;;;;;;;1.52;0.80;;;;;;;20.31;37.61;96778.81;10517459;28;20036;-50
2022/01/30 11:18:06;;;;;;;2.78;0.80;;;;;;;20.35;37.58;96768.91;10496837;28;20079;-50
2022/01/30 11:23:25;;;;;;;2.15;0.90;;;;;;;20.38;37.34;96783.69;10495363;28;20040;-50
2022/01/30 11:28:45;;;;;;;3.90;1.08;;;;;;;20.41;37.00;96777.63;10512200;28;20514;-50
2022/01/30 11:34:05;;;;;;;3.00;1.10;;;;;;;20.45;36.79;96800.19;10520047;28;20044;-52
2022/01/30 11:39:24;;;;;;;4.57;1.50;;;;;;;-146.19;100.00;65364.44;10534290;28;20048;-49
2022/01/30 11:44:46;;;;;;;3.88;1.40;;;;;;;20.48;37.32;96802.22;10528359;28;20059;-50
2022/01/30 11:50:07;;;;;;;4.13;1.20;;;;;;;20.49;37.41;96804.59;10532167;28;20047;-53
2022/01/30 11:55:59;;;;;;;6.28;1.40;;;;;;;20.52;37.60;96813.97;10517768;28;20058;-50
2022/01/30 12:01:25;;;;;;;5.10;1.00;;;;;;;20.51;37.87;96815.09;10526657;28;20713;-51
2022/01/30 12:06:47;;;;;;;3.97;1.20;;;;;;;20.51;37.93;96815.88;10528216;28;20088;-50
2022/01/30 12:12:07;;;;;;;3.53;1.02;;;;;;;20.52;37.84;96825.59;10517776;28;20449;-51
2022/01/30 12:17:47;;;;;;;5.10;1.40;;;;;;;20.53;38.62;96834.50;10517776;28;20081;-50
2022/01/30 12:23:24;;;;;;;25.80;13.15;;;;;;;20.54;39.73;96831.47;10526866;28;20629;-51
2022/01/30 12:28:54;;;;;;;29.10;12.55;;;;;;;-146.19;100.00;65364.44;10529463;28;20040;-50
2022/01/30 12:34:17;;;;;;;22.70;9.93;;;;;;;20.54;39.73;96831.47;10538266;28;20039;-50
2022/01/30 12:39:36;;;;;;;19.35;7.70;;;;;;;20.59;41.10;96808.84;10535072;28;20109;-50
2022/01/30 12:45:00;;;;;;;15.23;6.97;;;;;;;20.60;41.10;96844.81;10539814;28;20060;-52
2022/01/30 12:50:20;;;;;;;13.13;6.28;;;;;;;20.60;41.07;96839.41;10539136;28;20098;-51
2022/01/30 12:55:40;;;;;;;12.88;5.63;;;;;;;20.61;41.29;96858.03;10536437;28;20056;-51
2022/01/30 13:01:12;;;;;;;12.35;5.45;;;;;;;20.62;41.81;96843.38;10523957;28;20052;-54
2022/01/30 13:06:34;;;;;;;10.27;5.30;;;;;;;20.62;41.75;96848.00;10529803;28;20466;-54
2022/01/30 13:11:59;;;;;;;8.52;4.18;;;;;;;20.62;41.92;96858.81;10531010;28;20051;-50
2022/01/30 13:17:27;;;;;;;8.88;4.72;;;;;;;20.62;42.10;96851.50;10534424;28;20048;-52
2022/01/30 13:22:47;;;;;;;7.93;3.50;;;;;;;20.61;42.15;96858.03;10536931;28;20044;-50
2022/01/30 13:28:06;;;;;;;9.40;3.95;;;;;;;20.61;42.29;96866.16;10502356;28;20395;-51
2022/01/30 13:33:26;;;;;;;7.00;3.90;;;;;;;20.62;42.21;96880.47;10534873;28;21415;-54
2022/01/30 13:38:46;;;;;;;7.70;3.78;;;;;;;20.61;42.51;96897.84;10534281;28;20051;-53
2022/01/30 13:44:11;;;;;;;7.50;2.78;;;;;;;-146.19;100.00;65364.44;10525777;28;20063;-53
2022/01/30 13:49:42;;;;;;;5.85;2.60;;;;;;;-146.19;100.00;65364.44;10533206;28;20298;-56
2022/01/30 13:55:05;;;;;;;7.30;2.53;;;;;;;-146.19;100.00;65364.44;10531628;28;20499;-50
2022/01/30 14:00:34;;;;;;;4.65;2.40;;;;;;;-146.19;100.00;65364.44;10532117;28;20054;-50
2022/01/30 14:05:54;;;;;;;5.03;2.10;;;;;;;-146.19;100.00;65364.44;10525144;28;20453;-55
2022/01/30 14:11:14;;;;;;;6.22;2.20;;;;;;;-146.19;100.00;65364.44;10527499;28;20040;-47
2022/01/30 14:16:36;;;;;;;5.70;2.10;;;;;;;-146.19;100.00;65364.44;10533843;28;20506;-52
2022/01/30 14:22:11;;;;;;;7.78;2.45;;;;;;;20.61;42.51;96897.84;10530774;28;20048;-52
2022/01/30 14:27:35;;;;;;;4.47;2.10;;;;;;;20.34;38.75;96925.00;10525489;28;20045;-52
2022/01/30 14:32:55;;;;;;;4.82;2.00;;;;;;;20.38;39.37;96946.00;10512074;28;20048;-50
2022/01/30 14:38:15;;;;;;;4.00;1.90;;;;;;;-146.19;100.00;65364.44;10528860;28;20036;-48
2022/01/30 14:43:35;;;;;;;5.38;2.00;;;;;;;-146.19;100.00;65364.44;10525822;28;20087;-51
2022/01/30 14:48:54;;;;;;;7.85;1.80;;;;;;;-146.19;100.00;65364.44;10532334;28;20047;-49
2022/01/30 14:54:15;;;;;;;6.90;2.33;;;;;;;-146.19;100.00;65364.44;10529553;28;20048;-49
2022/01/30 14:59:35;;;;;;;6.00;2.15;;;;;;;-146.19;100.00;65364.44;10532721;28;20067;-49
2022/01/30 15:04:55;;;;;;;4.88;1.90;;;;;;;-146.19;100.00;65364.44;10533003;28;20483;-51
2022/01/30 15:10:15;;;;;;;3.28;1.50;;;;;;;-146.19;100.00;65364.44;10529666;28;20070;-50
2022/01/30 15:15:38;;;;;;;3.75;1.67;;;;;;;20.41;41.92;96972.44;10502965;28;20384;-53
2022/01/30 15:20:57;;;;;;;4.32;1.60;;;;;;;20.38;42.27;96984.69;10524382;28;20052;-50
2022/01/30 15:26:16;;;;;;;3.15;1.55;;;;;;;20.38;42.59;96984.69;10529238;28;20052;-49
2022/01/30 15:31:39;;;;;;;2.88;1.50;;;;;;;20.37;42.67;96993.94;10534087;28;20040;-51
2022/01/30 15:36:59;;;;;;;2.35;1.50;;;;;;;20.35;42.87;96985.34;10523581;28;20040;-50
2022/01/30 15:42:19;;;;;;;5.00;1.52;;;;;;;20.34;43.29;96994.56;10517271;28;20073;-50
2022/01/30 15:53:19;;;;;;;3.38;1.30;;;;;;;20.30;43.55;97010.66;10514992;28;20059;-50
2022/01/30 15:58:38;;;;;;;4.18;1.33;;;;;;;20.30;43.74;97017.97;10525173;28;20052;-49
2022/01/30 16:03:58;;;;;;;4.30;1.50;;;;;;;20.29;44.04;97035.34;10531622;28;20070;-49
2022/01/30 16:09:21;;;;;;;4.10;1.48;;;;;;;20.27;44.03;97026.75;10524661;28;20040;-50
2022/01/30 16:20:18;;;;;;;3.67;1.40;;;;;;;20.24;44.15;97036.28;10533753;28;20487;-50
2022/01/30 16:25:39;;;;;;;4.63;1.75;;;;;;;20.23;43.23;97042.84;10533766;28;20056;-48
2022/01/30 16:30:59;;;;;;;3.17;1.52;;;;;;;20.23;43.23;97042.84;10527564;28;20085;-53
2022/01/30 16:36:19;;;;;;;5.05;1.98;;;;;;;-146.19;100.00;65364.44;10527135;28;20497;-51
2022/01/30 16:41:39;;;;;;;2.47;1.20;;;;;;;-146.19;100.00;65364.44;10527518;28;20484;-58
2022/01/30 16:52:19;;;;;;;3.30;1.40;;;;;;;-146.19;100.00;65364.44;10531580;28;20052;-51
2022/01/30 16:57:38;;;;;;;2.47;1.58;;;;;;;20.23;43.23;97042.84;10531878;28;20487;-53
2022/01/30 17:02:58;;;;;;;5.80;1.98;;;;;;;20.18;45.43;97048.41;10531865;28;20036;-50
2022/01/30 17:08:19;;;;;;;5.30;1.40;;;;;;;20.15;45.68;97057.19;10526727;28;20044;-51
2022/01/30 17:13:39;;;;;;;3.33;1.60;;;;;;;-146.19;100.00;65364.44;10523760;28;20059;-51
2022/01/30 17:18:58;;;;;;;4.00;1.70;;;;;;;-146.19;100.00;65364.44;10533961;28;20119;-50
2022/01/30 17:24:18;;;;;;;4.50;1.50;;;;;;;-146.19;100.00;65364.44;10535695;28;20044;-50
2022/01/30 17:29:39;;;;;;;4.78;1.55;;;;;;;20.10;46.13;97071.66;10533701;28;20044;-49
2022/01/30 17:34:58;;;;;;;2.42;1.38;;;;;;;20.09;46.00;97078.19;10528309;28;20055;-50
2022/01/30 17:40:18;;;;;;;3.45;1.60;;;;;;;20.08;46.22;97083.91;10531506;28;20089;-49
2022/01/30 17:45:38;;;;;;;3.80;1.23;;;;;;;20.07;46.10;97093.13;10532007;28;20052;-50
2022/01/30 17:50:58;;;;;;;4.18;1.20;;;;;;;20.06;46.17;97091.56;10532419;28;20055;-50
2022/01/30 17:56:17;;;;;;;5.75;1.40;;;;;;;20.05;46.17;97093.47;10530613;28;20462;-50
2022/01/30 18:01:37;;;;;;;6.55;1.40;;;;;;;20.05;46.34;97095.34;10530052;28;20056;-51
2022/01/30 18:06:59;;;;;;;4.57;1.30;;;;;;;20.02;46.56;97096.81;10537149;28;20051;-52
2022/01/30 18:12:18;;;;;;;3.65;1.30;;;;;;;20.03;46.58;97109.22;10530588;28;20044;-51
2022/01/30 18:17:37;;;;;;;7.75;1.40;;;;;;;20.01;46.53;97107.94;10533921;28;20059;-50
2022/01/30 18:23:00;;;;;;;5.20;1.10;;;;;;;20.01;46.87;97110.63;10536957;28;20094;-50
2022/01/30 18:28:19;;;;;;;5.28;1.30;;;;;;;19.98;47.02;97114.78;10537548;28;20048;-50
2022/01/30 18:33:39;;;;;;;3.88;1.38;;;;;;;19.97;47.14;97106.97;10537505;28;20050;-53
2022/01/30 18:39:06;;;;;;;19.15;1.85;;;;;;;19.95;46.98;97091.88;10533860;28;20048;-50
2022/01/30 18:44:26;;;;;;;5.25;1.50;;;;;;;19.95;47.02;97107.28;10534234;28;20494;-52
2022/01/30 18:49:47;;;;;;;6.13;1.58;;;;;;;19.94;47.33;97117.31;10534894;28;20051;-52
2022/01/30 18:55:07;;;;;;;3.20;1.50;;;;;;;19.92;47.58;97114.16;10518071;28;20071;-50
2022/01/30 19:00:27;;;;;;;3.28;1.23;;;;;;;19.92;47.53;97110.66;10528659;28;20037;-50
2022/01/30 19:05:49;;;;;;;4.68;1.63;;;;;;;19.92;47.61;97113.34;10535215;28;20105;-50
2022/01/30 19:11:09;;;;;;;6.88;1.40;;;;;;;19.89;47.78;97109.38;10531778;28;20050;-49
2022/01/30 19:16:28;;;;;;;5.18;1.52;;;;;;;19.90;47.80;97123.69;10530455;28;20419;-51
2022/01/30 19:21:48;;;;;;;2.70;1.27;;;;;;;19.89;47.87;97120.19;10531788;28;20498;-48
2022/01/30 19:27:11;;;;;;;4.20;1.40;;;;;;;19.87;47.82;97117.00;10525580;28;20048;-49
2022/01/30 19:32:31;;;;;;;6.50;1.20;;;;;;;19.86;48.12;97110.00;10527778;28;20077;-49
2022/01/30 19:37:50;;;;;;;3.42;1.23;;;;;;;19.85;48.23;97094.91;10524973;28;20040;-49
2022/01/30 19:43:10;;;;;;;4.70;1.52;;;;;;;19.84;48.08;97093.31;10529093;28;20056;-49
2022/01/30 19:48:32;;;;;;;2.92;1.23;;;;;;;19.83;47.94;97094.41;10530614;28;20498;-48
2022/01/30 19:53:55;;;;;;;5.45;1.58;;;;;;;19.82;48.19;97070.44;10529004;28;20052;-50
2022/01/30 19:59:14;;;;;;;5.47;1.60;;;;;;;19.81;48.26;97071.53;10531911;28;20067;-49
2022/01/30 20:04:35;;;;;;;4.88;1.77;;;;;;;19.80;48.29;97075.34;10525123;28;20129;-48
2022/01/30 20:09:55;;;;;;;2.78;1.23;;;;;;;19.79;48.32;97077.25;10525581;28;20048;-52
2022/01/30 20:15:14;;;;;;;3.95;1.33;;;;;;;19.78;47.83;97075.69;10526563;28;20054;-49
2022/01/30 20:20:35;;;;;;;8.07;1.55;;;;;;;19.78;47.86;97074.84;10532367;28;20033;-48
2022/01/30 20:25:55;;;;;;;4.30;1.60;;;;;;;19.78;47.89;97082.97;10526287;28;20044;-48
2022/01/30 20:31:22;;;;;;;4.03;1.40;;;;;;;19.75;48.00;97085.19;10530263;28;20514;-48
2022/01/30 20:36:42;;;;;;;2.63;1.20;;;;;;;19.77;47.92;97078.69;10528543;28;20060;-48
2022/01/30 20:42:02;;;;;;;5.03;1.50;;;;;;;19.75;47.96;97073.59;10529416;28;20101;-48
2022/01/30 20:47:22;;;;;;;4.53;1.55;;;;;;;19.75;48.41;97070.91;10532798;28;20046;-51
2022/01/30 20:52:42;;;;;;;6.18;1.70;;;;;;;19.73;48.38;97067.72;10535822;28;20052;-52
2022/01/30 20:58:02;;;;;;;6.18;1.67;;;;;;;19.72;48.54;97077.75;10536562;28;20059;-51
2022/01/30 21:03:21;;;;;;;7.15;2.38;;;;;;;19.68;45.35;97076.75;10534509;28;20048;-51
2022/01/30 21:08:41;;;;;;;4.47;1.90;;;;;;;19.64;46.79;97089.31;10540238;28;20042;-51
2022/01/30 21:14:06;;;;;;;7.68;1.90;;;;;;;19.64;47.23;97070.41;10526461;28;20045;-51
2022/01/30 21:19:30;;;;;;;5.93;2.10;;;;;;;19.65;47.11;97063.06;10525572;28;20495;-51
2022/01/30 21:24:49;;;;;;;5.32;1.83;;;;;;;19.63;47.06;97081.53;10525365;28;20056;-51
2022/01/30 21:30:09;;;;;;;5.38;2.15;;;;;;;19.63;47.04;97068.00;10526036;28;20052;-51
2022/01/30 21:35:29;;;;;;;3.92;1.75;;;;;;;19.61;46.83;97052.09;10506898;28;20082;-51
2022/01/30 21:40:49;;;;;;;3.63;1.80;;;;;;;19.60;46.91;97047.00;10520399;28;20056;-51
2022/01/30 21:46:08;;;;;;;5.05;1.73;;;;;;;19.58;46.91;97039.22;10516198;28;20453;-51
2022/01/30 21:51:28;;;;;;;4.28;1.60;;;;;;;19.57;46.96;97034.94;10519063;28;20539;-52
2022/01/30 21:56:47;;;;;;;3.45;1.42;;;;;;;19.56;46.92;97039.56;10524888;28;20060;-51
2022/01/30 22:02:08;;;;;;;3.55;1.67;;;;;;;19.54;46.99;97039.09;10524500;28;20047;-54
2022/01/30 22:07:27;;;;;;;3.22;1.65;;;;;;;19.54;46.86;97027.47;10517095;28;20036;-51
2022/01/30 22:12:49;;;;;;;4.35;1.60;;;;;;;19.53;46.81;97031.28;10511655;28;20109;-51
2022/01/30 22:18:08;;;;;;;5.65;1.70;;;;;;;19.51;47.00;97018.09;10520978;28;20044;-51
2022/01/30 22:23:28;;;;;;;5.20;1.80;;;;;;;19.51;47.06;97022.69;10516549;28;20043;-52
2022/01/30 22:28:48;;;;;;;3.65;1.60;;;;;;;19.50;46.76;96999.47;10526808;28;20184;-52
2022/01/30 22:34:07;;;;;;;3.13;1.38;;;;;;;19.47;46.75;96990.13;10536091;28;20058;-51
2022/01/30 22:39:27;;;;;;;3.05;1.50;;;;;;;19.46;46.72;96977.72;10535856;28;20052;-51
2022/01/30 22:44:47;;;;;;;3.88;1.50;;;;;;;19.46;46.80;96963.41;10539169;28;20040;-52
2022/01/30 22:50:07;;;;;;;5.00;1.50;;;;;;;19.43;46.76;96945.16;10508721;28;20040;-51
2022/01/30 22:55:29;;;;;;;4.50;1.58;;;;;;;19.43;46.70;96940.53;10536280;28;20130;-51
2022/01/30 23:00:48;;;;;;;4.90;1.60;;;;;;;19.41;46.64;96936.56;10528407;28;20050;-52
2022/01/30 23:06:07;;;;;;;3.25;1.40;;;;;;;19.40;46.59;96934.97;10536978;28;20042;-52
2022/01/30 23:11:27;;;;;;;3.95;1.48;;;;;;;19.39;46.67;96930.69;10537202;28;20040;-51
2022/01/30 23:16:46;;;;;;;4.80;1.63;;;;;;;19.36;46.51;96930.19;10534731;28;20063;-51
2022/01/30 23:22:06;;;;;;;3.05;1.55;;;;;;;19.36;46.59;96918.59;10529018;28;20059;-51
2022/01/30 23:27:29;;;;;;;3.50;1.52;;;;;;;19.34;46.42;96905.41;10534147;28;20502;-51
2022/01/30 23:32:50;;;;;;;2.97;1.30;;;;;;;19.32;46.32;96896.03;10531733;28;20044;-51
2022/01/30 23:38:15;;;;;;;3.92;1.20;;;;;;;19.31;46.31;96886.38;10532997;28;20048;-51
2022/01/30 23:43:34;;;;;;;2.38;1.10;;;;;;;19.30;46.32;96887.47;10533050;28;20059;-51
2022/01/30 23:48:54;;;;;;;3.72;1.60;;;;;;;19.29;46.44;96883.19;10531411;28;20052;-52
2022/01/30 23:54:14;;;;;;;2.28;1.20;;;;;;;19.28;46.22;96876.19;10528233;28;20494;-51
2022/01/30 23:59:33;;;;;;;2.67;1.30;;;;;;;19.27;46.19;96869.22;10534520;28;20056;-51
